sensor_id;sensor_type;location;lat;lon;timestamp;P1;durP1;ratioP1;P2;durP2;ratioP2
4486;SDS011;2256;48.740;9.106;2023-01-24T00:01:41;35.72;;;15.35;;
4486;SDS011;2256;48.740;9.106;2023-01-24T00:04:08;33.00;;;15.15;;
4486;SDS011;2256;48.740;9.106;2023-01-24T00:06:35;33.88;;;14.23;;
4486;SDS011;2256;48.740;9.106;2023-01-24T00:09:01;36.40;;;15.55;;
4486;SDS011;2256;48.740;9.106;2023-01-24T00:11:30;32.92;;;15.15;;
4486;SDS011;2256;48.740;9.106;2023-01-24T00:13:56;28.55;;;14.07;;
4486;SDS011;2256;48.740;9.106;2023-01-24T00:16:23;33.28;;;14.25;;
4486;SDS011;2256;48.740;9.106;2023-01-24T00:18:50;30.67;;;14.00;;
4486;SDS011;2256;48.740;9.106;2023-01-24T00:21:18;34.85;;;14.70;;
4486;SDS011;2256;48.740;9.106;2023-01-24T00:23:46;32.10;;;14.40;;
4486;SDS011;2256;48.740;9.106;2023-01-24T00:26:14;30.05;;;14.02;;
4486;SDS011;2256;48.740;9.106;2023-01-24T00:28:44;33.20;;;14.50;;
4486;SDS011;2256;48.740;9.106;2023-01-24T00:31:11;32.75;;;14.07;;
4486;SDS011;2256;48.740;9.106;2023-01-24T00:33:39;34.17;;;14.57;;
4486;SDS011;2256;48.740;9.106;2023-01-24T00:36:06;30.40;;;14.55;;
4486;SDS011;2256;48.740;9.106;2023-01-24T00:38:33;37.42;;;16.45;;
4486;SDS011;2256;48.740;9.106;2023-01-24T00:41:00;33.63;;;14.85;;
4486;SDS011;2256;48.740;9.106;2023-01-24T00:43:27;35.47;;;13.63;;
4486;SDS011;2256;48.740;9.106;2023-01-24T00:45:55;31.13;;;14.77;;
4486;SDS011;2256;48.740;9.106;2023-01-24T00:48:22;32.72;;;14.15;;
4486;SDS011;2256;48.740;9.106;2023-01-24T00:50:49;30.27;;;14.32;;
4486;SDS011;2256;48.740;9.106;2023-01-24T00:53:16;30.92;;;15.13;;
4486;SDS011;2256;48.740;9.106;2023-01-24T00:55:44;29.45;;;14.20;;
4486;SDS011;2256;48.740;9.106;2023-01-24T00:58:12;29.35;;;14.40;;
4486;SDS011;2256;48.740;9.106;2023-01-24T01:00:39;27.58;;;12.30;;
4486;SDS011;2256;48.740;9.106;2023-01-24T01:03:09;37.78;;;14.82;;
4486;SDS011;2256;48.740;9.106;2023-01-24T01:05:38;30.10;;;12.38;;
4486;SDS011;2256;48.740;9.106;2023-01-24T01:08:05;27.73;;;13.93;;
4486;SDS011;2256;48.740;9.106;2023-01-24T01:10:32;28.20;;;13.57;;
4486;SDS011;2256;48.740;9.106;2023-01-24T01:12:59;31.65;;;14.93;;
4486;SDS011;2256;48.740;9.106;2023-01-24T01:15:25;28.92;;;14.45;;
4486;SDS011;2256;48.740;9.106;2023-01-24T01:17:52;30.48;;;14.90;;
4486;SDS011;2256;48.740;9.106;2023-01-24T01:20:20;27.67;;;12.57;;
4486;SDS011;2256;48.740;9.106;2023-01-24T01:22:47;30.48;;;13.15;;
4486;SDS011;2256;48.740;9.106;2023-01-24T01:25:14;29.60;;;13.65;;
4486;SDS011;2256;48.740;9.106;2023-01-24T01:27:41;29.90;;;14.05;;
4486;SDS011;2256;48.740;9.106;2023-01-24T01:30:08;26.67;;;13.18;;
4486;SDS011;2256;48.740;9.106;2023-01-24T01:32:35;29.10;;;13.40;;
4486;SDS011;2256;48.740;9.106;2023-01-24T01:35:02;28.02;;;13.70;;
4486;SDS011;2256;48.740;9.106;2023-01-24T01:37:30;30.48;;;13.50;;
4486;SDS011;2256;48.740;9.106;2023-01-24T01:39:57;28.35;;;13.80;;
4486;SDS011;2256;48.740;9.106;2023-01-24T01:42:24;31.17;;;13.32;;
4486;SDS011;2256;48.740;9.106;2023-01-24T01:44:52;31.52;;;14.32;;
4486;SDS011;2256;48.740;9.106;2023-01-24T01:47:24;33.58;;;16.23;;
4486;SDS011;2256;48.740;9.106;2023-01-24T01:49:56;32.70;;;14.38;;
4486;SDS011;2256;48.740;9.106;2023-01-24T01:52:26;33.42;;;15.40;;
4486;SDS011;2256;48.740;9.106;2023-01-24T01:55:00;28.55;;;14.02;;
4486;SDS011;2256;48.740;9.106;2023-01-24T01:57:31;30.00;;;15.40;;
4486;SDS011;2256;48.740;9.106;2023-01-24T02:00:00;34.65;;;15.70;;
4486;SDS011;2256;48.740;9.106;2023-01-24T02:02:30;30.45;;;13.98;;
4486;SDS011;2256;48.740;9.106;2023-01-24T02:04:58;29.23;;;13.18;;
4486;SDS011;2256;48.740;9.106;2023-01-24T02:07:28;33.85;;;15.15;;
4486;SDS011;2256;48.740;9.106;2023-01-24T02:09:57;31.05;;;14.20;;
4486;SDS011;2256;48.740;9.106;2023-01-24T02:12:27;29.85;;;13.30;;
4486;SDS011;2256;48.740;9.106;2023-01-24T02:14:57;27.10;;;13.40;;
4486;SDS011;2256;48.740;9.106;2023-01-24T02:17:44;32.30;;;14.25;;
4486;SDS011;2256;48.740;9.106;2023-01-24T02:20:14;31.10;;;13.98;;
4486;SDS011;2256;48.740;9.106;2023-01-24T02:22:56;33.65;;;14.73;;
4486;SDS011;2256;48.740;9.106;2023-01-24T02:25:33;33.53;;;15.00;;
4486;SDS011;2256;48.740;9.106;2023-01-24T02:28:06;28.90;;;13.85;;
4486;SDS011;2256;48.740;9.106;2023-01-24T02:30:34;28.52;;;14.52;;
4486;SDS011;2256;48.740;9.106;2023-01-24T02:33:08;48.35;;;15.20;;
4486;SDS011;2256;48.740;9.106;2023-01-24T02:35:35;30.98;;;14.57;;
4486;SDS011;2256;48.740;9.106;2023-01-24T02:38:04;37.05;;;14.95;;
4486;SDS011;2256;48.740;9.106;2023-01-24T02:40:32;34.60;;;15.35;;
4486;SDS011;2256;48.740;9.106;2023-01-24T02:43:01;32.35;;;14.70;;
4486;SDS011;2256;48.740;9.106;2023-01-24T02:45:32;26.95;;;12.98;;
4486;SDS011;2256;48.740;9.106;2023-01-24T02:48:00;34.10;;;14.95;;
4486;SDS011;2256;48.740;9.106;2023-01-24T02:50:28;31.88;;;14.20;;
4486;SDS011;2256;48.740;9.106;2023-01-24T02:53:18;34.65;;;14.23;;
4486;SDS011;2256;48.740;9.106;2023-01-24T02:55:56;35.90;;;13.82;;
4486;SDS011;2256;48.740;9.106;2023-01-24T02:58:41;28.33;;;13.55;;
4486;SDS011;2256;48.740;9.106;2023-01-24T03:01:09;30.92;;;15.10;;
4486;SDS011;2256;48.740;9.106;2023-01-24T03:03:37;34.60;;;16.05;;
4486;SDS011;2256;48.740;9.106;2023-01-24T03:06:04;38.85;;;15.48;;
4486;SDS011;2256;48.740;9.106;2023-01-24T03:08:31;30.55;;;12.70;;
4486;SDS011;2256;48.740;9.106;2023-01-24T03:10:59;34.22;;;14.30;;
4486;SDS011;2256;48.740;9.106;2023-01-24T03:13:26;30.40;;;15.18;;
4486;SDS011;2256;48.740;9.106;2023-01-24T03:16:11;33.80;;;14.45;;
4486;SDS011;2256;48.740;9.106;2023-01-24T03:18:56;32.72;;;14.50;;
4486;SDS011;2256;48.740;9.106;2023-01-24T03:21:41;30.38;;;13.77;;
4486;SDS011;2256;48.740;9.106;2023-01-24T03:24:29;31.02;;;13.38;;
4486;SDS011;2256;48.740;9.106;2023-01-24T03:27:14;29.63;;;14.20;;
4486;SDS011;2256;48.740;9.106;2023-01-24T03:29:59;33.47;;;14.43;;
4486;SDS011;2256;48.740;9.106;2023-01-24T03:32:45;37.60;;;14.63;;
4486;SDS011;2256;48.740;9.106;2023-01-24T03:35:30;34.42;;;14.25;;
4486;SDS011;2256;48.740;9.106;2023-01-24T03:37:57;30.02;;;14.63;;
4486;SDS011;2256;48.740;9.106;2023-01-24T03:40:42;29.63;;;13.38;;
4486;SDS011;2256;48.740;9.106;2023-01-24T03:43:09;39.50;;;13.63;;
4486;SDS011;2256;48.740;9.106;2023-01-24T03:45:37;36.13;;;13.98;;
4486;SDS011;2256;48.740;9.106;2023-01-24T03:48:06;35.78;;;14.63;;
4486;SDS011;2256;48.740;9.106;2023-01-24T03:50:38;38.65;;;14.98;;
4486;SDS011;2256;48.740;9.106;2023-01-24T03:53:24;31.92;;;14.65;;
4486;SDS011;2256;48.740;9.106;2023-01-24T03:55:52;32.35;;;13.52;;
4486;SDS011;2256;48.740;9.106;2023-01-24T03:58:20;31.20;;;13.05;;
4486;SDS011;2256;48.740;9.106;2023-01-24T04:00:47;36.03;;;14.75;;
4486;SDS011;2256;48.740;9.106;2023-01-24T04:03:15;30.98;;;13.48;;
4486;SDS011;2256;48.740;9.106;2023-01-24T04:05:42;32.47;;;13.50;;
4486;SDS011;2256;48.740;9.106;2023-01-24T04:08:09;35.50;;;13.80;;
4486;SDS011;2256;48.740;9.106;2023-01-24T04:10:36;30.27;;;13.95;;
4486;SDS011;2256;48.740;9.106;2023-01-24T04:13:04;30.30;;;13.38;;
4486;SDS011;2256;48.740;9.106;2023-01-24T04:15:31;32.97;;;14.57;;
4486;SDS011;2256;48.740;9.106;2023-01-24T04:17:59;27.98;;;13.02;;
4486;SDS011;2256;48.740;9.106;2023-01-24T04:20:29;30.67;;;14.68;;
4486;SDS011;2256;48.740;9.106;2023-01-24T04:22:59;34.40;;;14.45;;
4486;SDS011;2256;48.740;9.106;2023-01-24T04:25:26;30.85;;;14.00;;
4486;SDS011;2256;48.740;9.106;2023-01-24T04:27:53;31.42;;;14.20;;
4486;SDS011;2256;48.740;9.106;2023-01-24T04:30:21;37.22;;;15.50;;
4486;SDS011;2256;48.740;9.106;2023-01-24T04:32:47;38.95;;;16.08;;
4486;SDS011;2256;48.740;9.106;2023-01-24T04:35:15;37.85;;;14.27;;
4486;SDS011;2256;48.740;9.106;2023-01-24T04:37:44;36.40;;;15.32;;
4486;SDS011;2256;48.740;9.106;2023-01-24T04:40:11;30.98;;;13.63;;
4486;SDS011;2256;48.740;9.106;2023-01-24T04:42:40;31.42;;;14.30;;
4486;SDS011;2256;48.740;9.106;2023-01-24T04:45:08;35.05;;;14.95;;
4486;SDS011;2256;48.740;9.106;2023-01-24T04:47:36;30.55;;;13.90;;
4486;SDS011;2256;48.740;9.106;2023-01-24T04:50:04;32.40;;;14.90;;
4486;SDS011;2256;48.740;9.106;2023-01-24T04:52:32;33.83;;;14.90;;
4486;SDS011;2256;48.740;9.106;2023-01-24T04:55:00;33.50;;;14.60;;
4486;SDS011;2256;48.740;9.106;2023-01-24T04:57:27;35.33;;;14.80;;
4486;SDS011;2256;48.740;9.106;2023-01-24T04:59:54;29.80;;;12.57;;
4486;SDS011;2256;48.740;9.106;2023-01-24T05:02:20;35.25;;;14.70;;
4486;SDS011;2256;48.740;9.106;2023-01-24T05:04:47;41.13;;;15.15;;
4486;SDS011;2256;48.740;9.106;2023-01-24T05:07:14;39.00;;;16.17;;
4486;SDS011;2256;48.740;9.106;2023-01-24T05:09:41;35.72;;;15.23;;
4486;SDS011;2256;48.740;9.106;2023-01-24T05:12:09;42.13;;;17.35;;
4486;SDS011;2256;48.740;9.106;2023-01-24T05:14:36;39.83;;;14.23;;
4486;SDS011;2256;48.740;9.106;2023-01-24T05:17:03;42.33;;;15.98;;
4486;SDS011;2256;48.740;9.106;2023-01-24T05:19:29;38.08;;;16.00;;
4486;SDS011;2256;48.740;9.106;2023-01-24T05:21:56;36.38;;;16.63;;
4486;SDS011;2256;48.740;9.106;2023-01-24T05:24:24;37.58;;;15.55;;
4486;SDS011;2256;48.740;9.106;2023-01-24T05:26:51;36.45;;;14.50;;
4486;SDS011;2256;48.740;9.106;2023-01-24T05:29:19;44.60;;;18.02;;
4486;SDS011;2256;48.740;9.106;2023-01-24T05:31:46;44.20;;;15.25;;
4486;SDS011;2256;48.740;9.106;2023-01-24T05:34:12;42.58;;;17.80;;
4486;SDS011;2256;48.740;9.106;2023-01-24T05:36:39;36.97;;;16.15;;
4486;SDS011;2256;48.740;9.106;2023-01-24T05:39:06;36.60;;;15.15;;
4486;SDS011;2256;48.740;9.106;2023-01-24T05:41:33;40.38;;;15.32;;
4486;SDS011;2256;48.740;9.106;2023-01-24T05:44:01;38.70;;;14.68;;
4486;SDS011;2256;48.740;9.106;2023-01-24T05:46:29;38.38;;;15.68;;
4486;SDS011;2256;48.740;9.106;2023-01-24T05:48:56;41.35;;;16.42;;
4486;SDS011;2256;48.740;9.106;2023-01-24T05:51:22;36.25;;;15.40;;
4486;SDS011;2256;48.740;9.106;2023-01-24T05:53:49;40.60;;;14.63;;
4486;SDS011;2256;48.740;9.106;2023-01-24T05:56:17;42.17;;;16.80;;
4486;SDS011;2256;48.740;9.106;2023-01-24T05:58:46;40.55;;;16.13;;
4486;SDS011;2256;48.740;9.106;2023-01-24T06:01:14;44.35;;;17.60;;
4486;SDS011;2256;48.740;9.106;2023-01-24T06:03:45;35.53;;;16.10;;
4486;SDS011;2256;48.740;9.106;2023-01-24T06:06:14;46.42;;;18.15;;
4486;SDS011;2256;48.740;9.106;2023-01-24T06:08:42;41.90;;;17.45;;
4486;SDS011;2256;48.740;9.106;2023-01-24T06:11:11;38.83;;;16.90;;
4486;SDS011;2256;48.740;9.106;2023-01-24T06:13:39;43.03;;;16.40;;
4486;SDS011;2256;48.740;9.106;2023-01-24T06:16:07;50.58;;;17.15;;
4486;SDS011;2256;48.740;9.106;2023-01-24T06:18:37;37.65;;;16.15;;
4486;SDS011;2256;48.740;9.106;2023-01-24T06:21:07;39.45;;;16.35;;
4486;SDS011;2256;48.740;9.106;2023-01-24T06:23:42;35.95;;;15.65;;
4486;SDS011;2256;48.740;9.106;2023-01-24T06:26:09;38.15;;;14.77;;
4486;SDS011;2256;48.740;9.106;2023-01-24T06:28:36;42.00;;;17.02;;
4486;SDS011;2256;48.740;9.106;2023-01-24T06:31:04;40.55;;;16.30;;
4486;SDS011;2256;48.740;9.106;2023-01-24T06:33:37;44.40;;;19.02;;
4486;SDS011;2256;48.740;9.106;2023-01-24T06:36:28;48.80;;;18.48;;
4486;SDS011;2256;48.740;9.106;2023-01-24T06:39:03;46.53;;;17.40;;
4486;SDS011;2256;48.740;9.106;2023-01-24T06:41:36;42.25;;;16.20;;
4486;SDS011;2256;48.740;9.106;2023-01-24T06:44:03;34.97;;;15.65;;
4486;SDS011;2256;48.740;9.106;2023-01-24T06:46:32;44.08;;;18.08;;
4486;SDS011;2256;48.740;9.106;2023-01-24T06:48:59;44.88;;;17.70;;
4486;SDS011;2256;48.740;9.106;2023-01-24T06:51:27;36.20;;;16.52;;
4486;SDS011;2256;48.740;9.106;2023-01-24T06:53:54;43.25;;;17.60;;
4486;SDS011;2256;48.740;9.106;2023-01-24T06:56:21;40.00;;;16.75;;
4486;SDS011;2256;48.740;9.106;2023-01-24T06:58:47;45.53;;;17.52;;
4486;SDS011;2256;48.740;9.106;2023-01-24T07:01:14;49.88;;;19.08;;
4486;SDS011;2256;48.740;9.106;2023-01-24T07:03:41;47.10;;;18.20;;
4486;SDS011;2256;48.740;9.106;2023-01-24T07:06:08;42.95;;;16.85;;
4486;SDS011;2256;48.740;9.106;2023-01-24T07:08:36;39.17;;;16.63;;
4486;SDS011;2256;48.740;9.106;2023-01-24T07:11:03;46.03;;;17.40;;
4486;SDS011;2256;48.740;9.106;2023-01-24T07:13:30;49.28;;;18.50;;
4486;SDS011;2256;48.740;9.106;2023-01-24T07:15:59;41.13;;;17.23;;
4486;SDS011;2256;48.740;9.106;2023-01-24T07:18:26;49.08;;;17.15;;
4486;SDS011;2256;48.740;9.106;2023-01-24T07:20:54;44.88;;;17.55;;
4486;SDS011;2256;48.740;9.106;2023-01-24T07:23:22;47.45;;;17.50;;
4486;SDS011;2256;48.740;9.106;2023-01-24T07:25:51;45.00;;;17.17;;
4486;SDS011;2256;48.740;9.106;2023-01-24T07:28:18;44.20;;;18.63;;
4486;SDS011;2256;48.740;9.106;2023-01-24T07:30:45;44.90;;;17.90;;
4486;SDS011;2256;48.740;9.106;2023-01-24T07:33:13;46.80;;;19.02;;
4486;SDS011;2256;48.740;9.106;2023-01-24T07:35:40;49.25;;;16.35;;
4486;SDS011;2256;48.740;9.106;2023-01-24T07:38:09;40.88;;;17.35;;
4486;SDS011;2256;48.740;9.106;2023-01-24T07:40:36;43.97;;;17.33;;
4486;SDS011;2256;48.740;9.106;2023-01-24T07:43:05;47.90;;;19.92;;
4486;SDS011;2256;48.740;9.106;2023-01-24T07:45:32;41.72;;;17.83;;
4486;SDS011;2256;48.740;9.106;2023-01-24T07:48:00;49.72;;;17.13;;
4486;SDS011;2256;48.740;9.106;2023-01-24T07:50:27;40.72;;;16.10;;
4486;SDS011;2256;48.740;9.106;2023-01-24T07:52:56;46.03;;;17.80;;
4486;SDS011;2256;48.740;9.106;2023-01-24T07:55:23;47.92;;;17.48;;
4486;SDS011;2256;48.740;9.106;2023-01-24T07:57:51;49.60;;;19.10;;
4486;SDS011;2256;48.740;9.106;2023-01-24T08:00:20;42.10;;;17.15;;
4486;SDS011;2256;48.740;9.106;2023-01-24T08:02:47;39.47;;;16.40;;
4486;SDS011;2256;48.740;9.106;2023-01-24T08:05:15;41.28;;;16.65;;
4486;SDS011;2256;48.740;9.106;2023-01-24T08:07:42;53.03;;;18.65;;
4486;SDS011;2256;48.740;9.106;2023-01-24T08:10:09;39.00;;;16.25;;
4486;SDS011;2256;48.740;9.106;2023-01-24T08:12:37;42.88;;;16.85;;
4486;SDS011;2256;48.740;9.106;2023-01-24T08:15:05;37.30;;;16.38;;
4486;SDS011;2256;48.740;9.106;2023-01-24T08:17:33;42.80;;;16.80;;
4486;SDS011;2256;48.740;9.106;2023-01-24T08:20:01;41.33;;;16.27;;
4486;SDS011;2256;48.740;9.106;2023-01-24T08:22:29;40.00;;;17.05;;
4486;SDS011;2256;48.740;9.106;2023-01-24T08:24:57;32.40;;;15.23;;
4486;SDS011;2256;48.740;9.106;2023-01-24T08:27:24;40.35;;;15.52;;
4486;SDS011;2256;48.740;9.106;2023-01-24T08:29:51;48.38;;;17.95;;
4486;SDS011;2256;48.740;9.106;2023-01-24T08:32:20;39.65;;;16.00;;
4486;SDS011;2256;48.740;9.106;2023-01-24T08:34:48;44.13;;;17.90;;
4486;SDS011;2256;48.740;9.106;2023-01-24T08:37:16;38.08;;;15.55;;
4486;SDS011;2256;48.740;9.106;2023-01-24T08:39:43;51.22;;;16.63;;
4486;SDS011;2256;48.740;9.106;2023-01-24T08:42:10;38.40;;;16.60;;
4486;SDS011;2256;48.740;9.106;2023-01-24T08:44:37;41.03;;;17.00;;
4486;SDS011;2256;48.740;9.106;2023-01-24T08:47:04;38.95;;;16.40;;
4486;SDS011;2256;48.740;9.106;2023-01-24T08:49:31;38.25;;;16.30;;
4486;SDS011;2256;48.740;9.106;2023-01-24T08:51:59;42.33;;;16.77;;
4486;SDS011;2256;48.740;9.106;2023-01-24T08:54:26;35.13;;;15.18;;
4486;SDS011;2256;48.740;9.106;2023-01-24T08:56:54;43.75;;;16.20;;
4486;SDS011;2256;48.740;9.106;2023-01-24T08:59:21;38.78;;;16.95;;
4486;SDS011;2256;48.740;9.106;2023-01-24T09:01:48;45.30;;;16.00;;
4486;SDS011;2256;48.740;9.106;2023-01-24T09:04:15;37.08;;;16.25;;
4486;SDS011;2256;48.740;9.106;2023-01-24T09:06:42;40.15;;;15.40;;
4486;SDS011;2256;48.740;9.106;2023-01-24T09:09:11;37.80;;;17.02;;
4486;SDS011;2256;48.740;9.106;2023-01-24T09:11:38;46.17;;;16.33;;
4486;SDS011;2256;48.740;9.106;2023-01-24T09:14:06;40.45;;;16.90;;
4486;SDS011;2256;48.740;9.106;2023-01-24T09:16:34;35.65;;;15.57;;
4486;SDS011;2256;48.740;9.106;2023-01-24T09:19:02;43.00;;;17.33;;
4486;SDS011;2256;48.740;9.106;2023-01-24T09:21:30;48.97;;;17.85;;
4486;SDS011;2256;48.740;9.106;2023-01-24T09:23:58;41.90;;;16.08;;
4486;SDS011;2256;48.740;9.106;2023-01-24T09:26:27;43.63;;;17.27;;
4486;SDS011;2256;48.740;9.106;2023-01-24T09:28:53;37.22;;;15.63;;
4486;SDS011;2256;48.740;9.106;2023-01-24T09:31:21;41.60;;;16.60;;
4486;SDS011;2256;48.740;9.106;2023-01-24T09:33:48;41.75;;;16.95;;
4486;SDS011;2256;48.740;9.106;2023-01-24T09:36:15;38.95;;;16.85;;
4486;SDS011;2256;48.740;9.106;2023-01-24T09:38:42;33.83;;;15.02;;
4486;SDS011;2256;48.740;9.106;2023-01-24T09:41:11;42.30;;;16.90;;
4486;SDS011;2256;48.740;9.106;2023-01-24T09:43:50;38.38;;;15.52;;
4486;SDS011;2256;48.740;9.106;2023-01-24T09:46:20;39.42;;;17.50;;
4486;SDS011;2256;48.740;9.106;2023-01-24T09:48:54;44.13;;;17.70;;
4486;SDS011;2256;48.740;9.106;2023-01-24T09:51:27;34.10;;;15.57;;
4486;SDS011;2256;48.740;9.106;2023-01-24T09:54:00;43.60;;;16.85;;
4486;SDS011;2256;48.740;9.106;2023-01-24T09:56:30;45.20;;;16.17;;
4486;SDS011;2256;48.740;9.106;2023-01-24T09:59:18;35.65;;;16.38;;
4486;SDS011;2256;48.740;9.106;2023-01-24T10:01:47;35.92;;;16.05;;
4486;SDS011;2256;48.740;9.106;2023-01-24T10:04:16;38.78;;;16.55;;
4486;SDS011;2256;48.740;9.106;2023-01-24T10:06:52;37.70;;;15.50;;
4486;SDS011;2256;48.740;9.106;2023-01-24T10:09:38;37.15;;;15.82;;
4486;SDS011;2256;48.740;9.106;2023-01-24T10:12:14;41.92;;;16.10;;
4486;SDS011;2256;48.740;9.106;2023-01-24T10:14:54;45.20;;;19.05;;
4486;SDS011;2256;48.740;9.106;2023-01-24T10:17:45;33.33;;;14.98;;
4486;SDS011;2256;48.740;9.106;2023-01-24T10:20:29;32.08;;;15.30;;
4486;SDS011;2256;48.740;9.106;2023-01-24T10:23:08;32.10;;;14.43;;
4486;SDS011;2256;48.740;9.106;2023-01-24T10:25:44;51.10;;;15.57;;
4486;SDS011;2256;48.740;9.106;2023-01-24T10:28:17;41.50;;;14.50;;
4486;SDS011;2256;48.740;9.106;2023-01-24T10:30:49;36.05;;;16.13;;
4486;SDS011;2256;48.740;9.106;2023-01-24T10:33:21;42.97;;;15.43;;
4486;SDS011;2256;48.740;9.106;2023-01-24T10:35:55;46.83;;;15.20;;
4486;SDS011;2256;48.740;9.106;2023-01-24T10:38:24;30.58;;;15.05;;
4486;SDS011;2256;48.740;9.106;2023-01-24T10:40:52;34.63;;;15.10;;
4486;SDS011;2256;48.740;9.106;2023-01-24T10:43:21;35.20;;;13.23;;
4486;SDS011;2256;48.740;9.106;2023-01-24T10:45:53;36.53;;;14.20;;
4486;SDS011;2256;48.740;9.106;2023-01-24T10:48:34;30.15;;;13.90;;
4486;SDS011;2256;48.740;9.106;2023-01-24T10:51:15;30.05;;;12.57;;
4486;SDS011;2256;48.740;9.106;2023-01-24T10:53:43;28.00;;;11.40;;
4486;SDS011;2256;48.740;9.106;2023-01-24T10:56:11;27.98;;;12.73;;
4486;SDS011;2256;48.740;9.106;2023-01-24T10:58:40;27.77;;;12.43;;
4486;SDS011;2256;48.740;9.106;2023-01-24T11:01:16;23.30;;;9.45;;
4486;SDS011;2256;48.740;9.106;2023-01-24T11:03:46;26.77;;;12.20;;
4486;SDS011;2256;48.740;9.106;2023-01-24T11:06:22;27.98;;;13.13;;
4486;SDS011;2256;48.740;9.106;2023-01-24T11:08:52;26.83;;;12.35;;
4486;SDS011;2256;48.740;9.106;2023-01-24T11:11:22;29.30;;;12.18;;
4486;SDS011;2256;48.740;9.106;2023-01-24T11:13:53;29.48;;;13.40;;
4486;SDS011;2256;48.740;9.106;2023-01-24T11:16:23;38.60;;;10.80;;
4486;SDS011;2256;48.740;9.106;2023-01-24T11:18:54;24.52;;;11.35;;
4486;SDS011;2256;48.740;9.106;2023-01-24T11:21:23;24.23;;;11.90;;
4486;SDS011;2256;48.740;9.106;2023-01-24T11:23:58;21.75;;;10.80;;
4486;SDS011;2256;48.740;9.106;2023-01-24T11:26:27;41.50;;;19.20;;
4486;SDS011;2256;48.740;9.106;2023-01-24T11:28:59;25.70;;;11.55;;
4486;SDS011;2256;48.740;9.106;2023-01-24T11:31:30;27.15;;;11.68;;
4486;SDS011;2256;48.740;9.106;2023-01-24T11:34:06;24.38;;;11.52;;
4486;SDS011;2256;48.740;9.106;2023-01-24T11:36:50;26.38;;;11.27;;
4486;SDS011;2256;48.740;9.106;2023-01-24T11:39:32;25.13;;;11.57;;
4486;SDS011;2256;48.740;9.106;2023-01-24T11:42:09;26.75;;;12.13;;
4486;SDS011;2256;48.740;9.106;2023-01-24T11:44:55;21.23;;;9.82;;
4486;SDS011;2256;48.740;9.106;2023-01-24T11:47:49;44.10;;;15.93;;
4486;SDS011;2256;48.740;9.106;2023-01-24T11:50:27;24.88;;;11.88;;
4486;SDS011;2256;48.740;9.106;2023-01-24T11:53:05;22.58;;;11.65;;
4486;SDS011;2256;48.740;9.106;2023-01-24T11:55:51;34.42;;;14.27;;
4486;SDS011;2256;48.740;9.106;2023-01-24T11:58:32;23.00;;;10.70;;
4486;SDS011;2256;48.740;9.106;2023-01-24T12:01:16;27.17;;;12.18;;
4486;SDS011;2256;48.740;9.106;2023-01-24T12:07:03;23.80;;;11.27;;
4486;SDS011;2256;48.740;9.106;2023-01-24T12:09:36;38.10;;;13.00;;
4486;SDS011;2256;48.740;9.106;2023-01-24T12:12:12;31.27;;;12.60;;
4486;SDS011;2256;48.740;9.106;2023-01-24T12:14:56;25.13;;;11.13;;
4486;SDS011;2256;48.740;9.106;2023-01-24T12:17:51;23.85;;;12.30;;
4486;SDS011;2256;48.740;9.106;2023-01-24T12:20:28;27.60;;;12.57;;
4486;SDS011;2256;48.740;9.106;2023-01-24T12:23:16;30.80;;;12.77;;
4486;SDS011;2256;48.740;9.106;2023-01-24T12:25:46;25.23;;;11.45;;
4486;SDS011;2256;48.740;9.106;2023-01-24T12:28:22;25.45;;;11.80;;
4486;SDS011;2256;48.740;9.106;2023-01-24T12:30:55;24.02;;;10.43;;
4486;SDS011;2256;48.740;9.106;2023-01-24T12:33:26;28.70;;;11.33;;
4486;SDS011;2256;48.740;9.106;2023-01-24T12:35:58;23.58;;;12.60;;
4486;SDS011;2256;48.740;9.106;2023-01-24T12:38:29;29.15;;;11.43;;
4486;SDS011;2256;48.740;9.106;2023-01-24T12:41:03;27.38;;;12.07;;
4486;SDS011;2256;48.740;9.106;2023-01-24T12:43:39;29.70;;;12.15;;
4486;SDS011;2256;48.740;9.106;2023-01-24T12:46:25;24.95;;;11.45;;
4486;SDS011;2256;48.740;9.106;2023-01-24T12:48:59;23.20;;;10.65;;
4486;SDS011;2256;48.740;9.106;2023-01-24T12:51:36;23.40;;;10.02;;
4486;SDS011;2256;48.740;9.106;2023-01-24T12:54:09;26.65;;;12.45;;
4486;SDS011;2256;48.740;9.106;2023-01-24T12:56:42;23.75;;;10.85;;
4486;SDS011;2256;48.740;9.106;2023-01-24T12:59:16;28.27;;;10.57;;
4486;SDS011;2256;48.740;9.106;2023-01-24T13:04:48;33.78;;;9.70;;
4486;SDS011;2256;48.740;9.106;2023-01-24T13:07:27;23.23;;;10.45;;
4486;SDS011;2256;48.740;9.106;2023-01-24T13:10:05;24.88;;;11.15;;
4486;SDS011;2256;48.740;9.106;2023-01-24T13:12:39;23.88;;;11.07;;
4486;SDS011;2256;48.740;9.106;2023-01-24T13:15:13;27.30;;;11.80;;
4486;SDS011;2256;48.740;9.106;2023-01-24T13:17:47;19.75;;;9.95;;
4486;SDS011;2256;48.740;9.106;2023-01-24T13:20:33;24.90;;;11.38;;
4486;SDS011;2256;48.740;9.106;2023-01-24T13:23:34;22.85;;;10.55;;
4486;SDS011;2256;48.740;9.106;2023-01-24T13:26:22;22.92;;;9.30;;
4486;SDS011;2256;48.740;9.106;2023-01-24T13:29:16;17.30;;;9.82;;
4486;SDS011;2256;48.740;9.106;2023-01-24T13:31:52;21.50;;;10.55;;
4486;SDS011;2256;48.740;9.106;2023-01-24T13:34:26;26.33;;;10.88;;
4486;SDS011;2256;48.740;9.106;2023-01-24T13:36:57;20.75;;;11.18;;
4486;SDS011;2256;48.740;9.106;2023-01-24T13:39:31;26.55;;;11.25;;
4486;SDS011;2256;48.740;9.106;2023-01-24T13:42:01;24.42;;;10.63;;
4486;SDS011;2256;48.740;9.106;2023-01-24T13:44:31;25.08;;;11.38;;
4486;SDS011;2256;48.740;9.106;2023-01-24T13:47:04;20.20;;;8.82;;
4486;SDS011;2256;48.740;9.106;2023-01-24T13:52:50;22.17;;;10.05;;
4486;SDS011;2256;48.740;9.106;2023-01-24T13:58:25;29.02;;;10.30;;
4486;SDS011;2256;48.740;9.106;2023-01-24T14:00:53;23.83;;;10.48;;
4486;SDS011;2256;48.740;9.106;2023-01-24T14:03:23;25.88;;;10.65;;
4486;SDS011;2256;48.740;9.106;2023-01-24T14:05:54;27.00;;;12.02;;
4486;SDS011;2256;48.740;9.106;2023-01-24T14:11:33;28.25;;;10.38;;
4486;SDS011;2256;48.740;9.106;2023-01-24T14:19:55;21.42;;;10.10;;
4486;SDS011;2256;48.740;9.106;2023-01-24T14:22:29;20.67;;;11.05;;
4486;SDS011;2256;48.740;9.106;2023-01-24T14:25:03;24.00;;;10.95;;
4486;SDS011;2256;48.740;9.106;2023-01-24T14:27:46;27.48;;;10.90;;
4486;SDS011;2256;48.740;9.106;2023-01-24T14:33:13;22.02;;;10.30;;
4486;SDS011;2256;48.740;9.106;2023-01-24T14:35:57;32.10;;;10.02;;
4486;SDS011;2256;48.740;9.106;2023-01-24T14:38:27;23.15;;;11.82;;
4486;SDS011;2256;48.740;9.106;2023-01-24T14:40:54;26.05;;;11.20;;
4486;SDS011;2256;48.740;9.106;2023-01-24T14:43:24;20.65;;;9.50;;
4486;SDS011;2256;48.740;9.106;2023-01-24T14:46:07;27.63;;;9.73;;
4486;SDS011;2256;48.740;9.106;2023-01-24T14:48:37;25.42;;;10.80;;
4486;SDS011;2256;48.740;9.106;2023-01-24T14:51:05;24.50;;;10.85;;
4486;SDS011;2256;48.740;9.106;2023-01-24T14:53:34;24.23;;;11.60;;
4486;SDS011;2256;48.740;9.106;2023-01-24T14:56:05;34.95;;;11.50;;
4486;SDS011;2256;48.740;9.106;2023-01-24T14:58:34;25.15;;;12.07;;
4486;SDS011;2256;48.740;9.106;2023-01-24T15:01:01;27.83;;;11.10;;
4486;SDS011;2256;48.740;9.106;2023-01-24T15:03:29;28.20;;;11.20;;
4486;SDS011;2256;48.740;9.106;2023-01-24T15:06:00;22.27;;;11.38;;
4486;SDS011;2256;48.740;9.106;2023-01-24T15:08:28;25.35;;;12.10;;
4486;SDS011;2256;48.740;9.106;2023-01-24T15:10:57;26.92;;;11.90;;
4486;SDS011;2256;48.740;9.106;2023-01-24T15:13:28;44.90;;;17.73;;
4486;SDS011;2256;48.740;9.106;2023-01-24T15:15:57;28.30;;;13.00;;
4486;SDS011;2256;48.740;9.106;2023-01-24T15:18:28;25.13;;;12.18;;
4486;SDS011;2256;48.740;9.106;2023-01-24T15:21:04;27.95;;;12.63;;
4486;SDS011;2256;48.740;9.106;2023-01-24T15:23:32;25.00;;;12.52;;
4486;SDS011;2256;48.740;9.106;2023-01-24T15:28:47;29.95;;;12.32;;
4486;SDS011;2256;48.740;9.106;2023-01-24T15:31:17;27.33;;;12.38;;
4486;SDS011;2256;48.740;9.106;2023-01-24T15:33:45;24.02;;;11.60;;
4486;SDS011;2256;48.740;9.106;2023-01-24T15:36:21;31.58;;;11.45;;
4486;SDS011;2256;48.740;9.106;2023-01-24T15:38:50;29.75;;;12.52;;